createdAt,value
2024-03-26T00:01:58.501Z,62.59
2024-03-26T00:04:25.725Z,63.01
2024-03-26T00:06:51.836Z,63.12
2024-03-26T00:09:18.014Z,62.25
2024-03-26T00:11:45.926Z,62.39
2024-03-26T00:14:12.114Z,62.67
2024-03-26T00:16:40.420Z,62.52
2024-03-26T00:19:08.969Z,63.15
2024-03-26T00:21:36.116Z,63.17
2024-03-26T00:24:02.212Z,63.20
2024-03-26T00:26:28.630Z,63.11
2024-03-26T00:28:55.206Z,63.38
2024-03-26T00:31:21.359Z,63.45
2024-03-26T00:33:47.764Z,63.68
2024-03-26T00:36:13.882Z,63.38
2024-03-26T00:38:40.752Z,63.65
2024-03-26T00:41:06.957Z,63.99
2024-03-26T00:43:33.072Z,64.37
2024-03-26T00:45:59.201Z,64.44
2024-03-26T00:48:25.854Z,64.03
2024-03-26T00:50:51.941Z,63.96
2024-03-26T00:53:18.098Z,64.52
2024-03-26T00:55:45.238Z,64.76
2024-03-26T00:58:11.346Z,64.21
2024-03-26T01:00:38.658Z,64.83
2024-03-26T01:03:05.433Z,64.46
2024-03-26T01:05:31.562Z,64.96
2024-03-26T01:07:57.930Z,64.92
2024-03-26T01:10:24.450Z,64.84
2024-03-26T01:12:51.227Z,65.04
2024-03-26T01:15:17.500Z,64.43
2024-03-26T01:17:43.987Z,64.59
2024-03-26T01:20:11.242Z,65.03
2024-03-26T01:22:37.373Z,65.18
2024-03-26T01:25:06.286Z,65.31
2024-03-26T01:27:32.510Z,64.73
2024-03-26T01:29:59.336Z,65.39
2024-03-26T01:32:25.562Z,65.34
2024-03-26T01:34:51.945Z,65.41
2024-03-26T01:37:18.068Z,65.04
2024-03-26T01:39:44.510Z,65.49
2024-03-26T01:42:10.673Z,65.63
2024-03-26T01:44:36.751Z,65.22
2024-03-26T01:47:03.925Z,65.76
2024-03-26T01:49:30.559Z,65.57
2024-03-26T01:51:56.743Z,65.96
2024-03-26T01:54:23.175Z,66.06
2024-03-26T01:56:49.601Z,65.89
2024-03-26T01:59:16.292Z,65.96
2024-03-26T02:01:42.734Z,65.88
2024-03-26T02:04:09.542Z,66.37
2024-03-26T02:06:35.751Z,66.63
2024-03-26T02:09:02.608Z,66.20
2024-03-26T02:11:28.537Z,66.96
2024-03-26T02:13:54.675Z,66.70
2024-03-26T02:16:21.097Z,67.01
2024-03-26T02:18:47.239Z,66.41
2024-03-26T02:21:14.169Z,66.43
2024-03-26T02:23:40.628Z,66.88
2024-03-26T02:26:10.263Z,67.09
2024-03-26T02:28:36.381Z,67.21
2024-03-26T02:31:02.843Z,66.51
2024-03-26T02:33:28.953Z,67.02
2024-03-26T02:35:55.098Z,66.72
2024-03-26T02:38:21.449Z,66.78
2024-03-26T02:40:47.600Z,66.67
2024-03-26T02:43:14.374Z,67.17
2024-03-26T02:45:40.779Z,67.32
2024-03-26T02:48:09.928Z,67.21
2024-03-26T02:50:36.048Z,67.19
2024-03-26T02:53:02.525Z,67.10
2024-03-26T02:55:28.676Z,66.75
2024-03-26T02:57:54.783Z,67.16
2024-03-26T03:00:21.785Z,67.35
2024-03-26T03:02:47.902Z,66.73
2024-03-26T03:05:14.088Z,67.32
2024-03-26T03:07:40.592Z,66.65
2024-03-26T03:10:08.099Z,66.71
2024-03-26T03:12:34.300Z,66.88
2024-03-26T03:15:00.780Z,67.10
2024-03-26T03:17:32.084Z,67.33
2024-03-26T03:19:58.192Z,67.22
2024-03-26T03:22:24.621Z,67.41
2024-03-26T03:24:50.713Z,66.77
2024-03-26T03:27:16.842Z,66.95
2024-03-26T03:29:43.270Z,67.07
2024-03-26T03:32:09.442Z,66.81
2024-03-26T03:34:36.159Z,67.16
2024-03-26T03:37:02.573Z,67.04
2024-03-26T03:39:28.953Z,66.79
2024-03-26T03:41:55.091Z,67.02
2024-03-26T03:44:21.567Z,67.35
2024-03-26T03:46:47.674Z,66.72
2024-03-26T03:49:13.888Z,67.37
2024-03-26T03:51:40.880Z,66.84
2024-03-26T03:54:06.961Z,67.19
2024-03-26T03:56:33.066Z,66.79
2024-03-26T03:58:59.523Z,67.00
2024-03-26T04:01:25.659Z,67.28
2024-03-26T04:03:51.743Z,66.76
2024-03-26T04:06:18.155Z,67.02
2024-03-26T04:08:44.881Z,66.80
2024-03-26T04:11:11.032Z,67.42
2024-03-26T04:13:37.882Z,67.47
2024-03-26T04:16:03.877Z,66.73
2024-03-26T04:18:30.836Z,67.20
2024-03-26T04:20:58.243Z,67.56
2024-03-26T04:23:24.372Z,67.39
2024-03-26T04:25:58.326Z,67.56
2024-03-26T04:28:26.654Z,67.64
2024-03-26T04:30:52.931Z,67.18
2024-03-26T04:33:19.437Z,67.35
2024-03-26T04:35:45.658Z,67.71
2024-03-26T04:38:12.616Z,67.83
2024-03-26T04:40:38.800Z,67.86
2024-03-26T04:43:06.406Z,67.61
2024-03-26T04:45:33.184Z,67.94
2024-03-26T04:47:59.294Z,67.31
2024-03-26T04:50:26.156Z,67.30
2024-03-26T04:52:52.338Z,68.07
2024-03-26T04:55:18.492Z,67.75
2024-03-26T04:57:44.863Z,67.62
2024-03-26T05:00:13.218Z,67.53
2024-03-26T05:02:39.498Z,67.42
2024-03-26T05:05:05.849Z,67.49
2024-03-26T05:07:32.720Z,67.72
2024-03-26T05:09:58.628Z,68.51
2024-03-26T05:12:24.728Z,67.96
2024-03-26T05:14:51.321Z,68.37
2024-03-26T05:17:18.233Z,68.07
2024-03-26T05:19:44.150Z,68.42
2024-03-26T05:22:10.586Z,68.19
2024-03-26T05:24:38.695Z,68.11
2024-03-26T05:27:05.961Z,67.96
2024-03-26T05:29:32.650Z,68.33
2024-03-26T05:31:58.933Z,68.87
2024-03-26T05:34:25.695Z,68.47
2024-03-26T05:36:52.113Z,68.69
2024-03-26T05:39:18.247Z,68.47
2024-03-26T05:41:44.344Z,68.64
2024-03-26T05:44:10.797Z,68.61
2024-03-26T05:46:36.936Z,68.85
2024-03-26T05:49:03.077Z,69.13
2024-03-26T05:51:30.115Z,68.68
2024-03-26T05:53:56.291Z,68.80
2024-03-26T05:56:22.475Z,69.00
2024-03-26T05:58:48.862Z,69.29
2024-03-26T06:01:15.028Z,68.68
2024-03-26T06:03:41.154Z,69.25
2024-03-26T06:06:07.631Z,69.06
2024-03-26T06:08:37.449Z,69.25
2024-03-26T06:11:03.877Z,69.12
2024-03-26T06:13:30.482Z,69.25
2024-03-26T06:16:04.635Z,69.03
2024-03-26T06:18:31.125Z,69.14
2024-03-26T06:20:57.303Z,68.72
2024-03-26T06:23:23.663Z,68.88
2024-03-26T06:25:50.977Z,68.50
2024-03-26T06:28:17.854Z,68.57
2024-03-26T06:30:44.139Z,68.36
2024-03-26T06:33:12.137Z,68.41
2024-03-26T06:35:38.408Z,68.42
2024-03-26T06:38:05.727Z,68.88
2024-03-26T06:40:32.181Z,68.42
2024-03-26T06:42:58.960Z,68.07
2024-03-26T06:45:24.853Z,67.30
2024-03-26T06:47:51.385Z,68.36
2024-03-26T06:50:17.932Z,68.24
2024-03-26T06:52:45.954Z,68.36
2024-03-26T06:55:13.462Z,68.50
2024-03-26T06:57:39.600Z,68.15
2024-03-26T07:00:08.828Z,67.81
2024-03-26T07:02:36.377Z,68.05
2024-03-26T07:05:02.688Z,67.33
2024-03-26T07:07:28.952Z,68.23
2024-03-26T07:09:55.400Z,67.98
2024-03-26T07:12:21.546Z,67.77
2024-03-26T07:14:47.725Z,67.95
2024-03-26T07:17:14.769Z,67.90
2024-03-26T07:19:41.200Z,67.64
2024-03-26T07:22:07.359Z,67.12
2024-03-26T07:24:33.735Z,67.63
2024-03-26T07:26:59.931Z,66.81
2024-03-26T07:29:26.129Z,67.45
2024-03-26T07:31:52.653Z,67.76
2024-03-26T07:34:19.477Z,67.79
2024-03-26T07:36:45.607Z,67.41
2024-03-26T07:39:15.968Z,67.38
2024-03-26T07:41:42.213Z,67.24
2024-03-26T07:44:08.475Z,67.31
2024-03-26T07:46:35.721Z,67.36
2024-03-26T07:49:02.220Z,66.33
2024-03-26T07:51:29.122Z,66.76
2024-03-26T07:53:55.619Z,67.18
2024-03-26T07:56:22.383Z,66.50
2024-03-26T07:58:48.785Z,67.00
2024-03-26T08:01:15.216Z,66.60
2024-03-26T08:03:41.297Z,65.67
2024-03-26T08:06:07.459Z,66.40
2024-03-26T08:08:34.554Z,66.34
2024-03-26T08:11:00.943Z,66.84
2024-03-26T08:13:27.123Z,66.10
2024-03-26T08:15:53.578Z,65.90
2024-03-26T08:18:20.332Z,66.28
2024-03-26T08:20:46.583Z,66.18
2024-03-26T08:23:13.049Z,66.33
2024-03-26T08:25:39.811Z,65.59
2024-03-26T08:28:06.175Z,66.08
2024-03-26T08:30:32.619Z,65.16
2024-03-26T08:32:58.930Z,64.87
2024-03-26T08:35:25.139Z,63.22
2024-03-26T08:37:51.675Z,64.70
2024-03-26T08:40:18.232Z,65.12
2024-03-26T08:42:44.878Z,62.69
2024-03-26T08:45:12.220Z,64.17
2024-03-26T08:47:39.134Z,64.63
2024-03-26T08:50:08.177Z,65.10
2024-03-26T08:52:34.657Z,64.72
2024-03-26T08:55:00.587Z,60.81
2024-03-26T08:57:26.707Z,63.98
2024-03-26T08:59:53.728Z,64.95
2024-03-26T09:02:20.353Z,63.72
2024-03-26T09:04:47.017Z,63.65
2024-03-26T09:07:13.392Z,64.02
2024-03-26T09:09:39.550Z,63.16
2024-03-26T09:12:06.400Z,62.69
2024-03-26T09:14:32.763Z,63.87
2024-03-26T09:16:59.571Z,63.08
2024-03-26T09:19:25.743Z,63.24
2024-03-26T09:21:53.184Z,63.61
2024-03-26T09:24:20.778Z,63.45
2024-03-26T09:26:46.884Z,63.37
2024-03-26T09:29:13.302Z,63.52
2024-03-26T09:31:40.093Z,61.13
2024-03-26T09:34:07.013Z,64.03
2024-03-26T09:36:33.414Z,63.46
2024-03-26T09:39:07.753Z,61.11
2024-03-26T09:41:37.169Z,63.18
2024-03-26T09:44:03.542Z,62.22
2024-03-26T09:46:29.609Z,57.66
2024-03-26T09:48:58.786Z,61.45
2024-03-26T09:51:27.103Z,60.10
2024-03-26T09:53:55.093Z,60.04
2024-03-26T09:56:22.766Z,59.64
2024-03-26T09:58:49.322Z,59.62
2024-03-26T10:01:17.695Z,58.51
2024-03-26T10:03:44.392Z,58.42
2024-03-26T10:06:10.721Z,57.69
2024-03-26T10:08:37.530Z,58.90
2024-03-26T10:11:05.197Z,55.89
2024-03-26T10:13:31.718Z,58.23
2024-03-26T10:15:57.861Z,58.28
2024-03-26T10:18:24.315Z,58.02
2024-03-26T10:20:50.240Z,53.05
2024-03-26T10:23:16.356Z,58.41
2024-03-26T10:25:43.456Z,58.64
2024-03-26T10:28:09.601Z,58.44
2024-03-26T10:30:35.790Z,57.57
2024-03-26T10:33:02.284Z,55.19
2024-03-26T10:35:31.147Z,57.56
2024-03-26T10:38:04.416Z,58.39
2024-03-26T10:40:39.706Z,56.01
2024-03-26T10:43:06.926Z,58.18
2024-03-26T10:45:44.283Z,57.11
2024-03-26T10:48:21.046Z,56.75
2024-03-26T10:50:47.838Z,57.70
2024-03-26T10:53:14.496Z,57.49
2024-03-26T10:55:41.285Z,57.30
2024-03-26T10:58:08.253Z,56.74
2024-03-26T11:00:35.372Z,56.48
2024-03-26T11:03:02.630Z,57.61
2024-03-26T11:05:30.859Z,56.56
2024-03-26T11:07:57.145Z,56.57
2024-03-26T11:10:23.792Z,57.72
2024-03-26T11:12:50.969Z,56.67
2024-03-26T11:15:22.438Z,57.34
2024-03-26T11:17:52.930Z,56.87
2024-03-26T11:20:21.548Z,56.31
2024-03-26T11:22:55.075Z,54.71
2024-03-26T11:25:25.052Z,54.71
2024-03-26T11:27:52.298Z,57.21
2024-03-26T11:30:19.003Z,56.88
2024-03-26T11:32:46.117Z,56.27
2024-03-26T11:35:17.273Z,56.43
2024-03-26T11:37:43.747Z,55.35
2024-03-26T11:40:10.225Z,56.43
2024-03-26T11:42:37.284Z,56.61
2024-03-26T11:45:05.811Z,57.42
2024-03-26T11:47:32.107Z,56.89
2024-03-26T11:49:58.861Z,51.78
2024-03-26T11:52:25.528Z,56.41
2024-03-26T11:54:51.722Z,56.53
2024-03-26T11:57:18.140Z,56.43
2024-03-26T11:59:45.034Z,55.77
2024-03-26T12:02:12.171Z,56.82
2024-03-26T12:04:38.449Z,57.15
2024-03-26T12:07:06.068Z,56.93
2024-03-26T12:09:32.573Z,55.71
2024-03-26T12:12:00.328Z,57.35
2024-03-26T12:14:27.311Z,56.51
2024-03-26T12:16:53.877Z,56.71
2024-03-26T12:19:21.175Z,56.58
2024-03-26T12:21:49.760Z,54.92
2024-03-26T12:24:17.953Z,56.03
2024-03-26T12:26:44.097Z,56.06
2024-03-26T12:29:11.825Z,56.87
2024-03-26T12:31:38.273Z,56.40
2024-03-26T12:34:08.176Z,55.33
2024-03-26T12:36:36.448Z,57.00
2024-03-26T12:39:04.021Z,56.65
2024-03-26T12:41:30.989Z,56.66
2024-03-26T12:43:57.567Z,56.97
2024-03-26T12:46:29.317Z,56.29
2024-03-26T12:48:56.932Z,56.11
2024-03-26T12:51:24.623Z,56.33
2024-03-26T12:54:01.958Z,53.63
2024-03-26T12:56:28.768Z,56.24
2024-03-26T12:58:56.632Z,56.72
2024-03-26T13:01:22.920Z,56.24
2024-03-26T13:03:49.282Z,54.69
2024-03-26T13:06:15.451Z,56.48
2024-03-26T13:08:41.632Z,56.10
2024-03-26T13:11:11.998Z,54.75
2024-03-26T13:13:39.126Z,55.73
2024-03-26T13:16:06.588Z,55.25
2024-03-26T13:18:34.237Z,55.22
2024-03-26T13:21:00.420Z,56.32
2024-03-26T13:23:26.656Z,55.67
2024-03-26T13:25:54.159Z,51.59
2024-03-26T13:28:20.431Z,55.25
2024-03-26T13:30:47.410Z,55.40
2024-03-26T13:33:14.726Z,55.13
2024-03-26T13:35:41.019Z,55.11
2024-03-26T13:38:07.063Z,52.75
2024-03-26T13:40:46.645Z,53.76
2024-03-26T13:43:19.481Z,55.42
2024-03-26T13:45:46.953Z,55.46
2024-03-26T13:48:15.406Z,56.11
2024-03-26T13:50:43.883Z,55.73
2024-03-26T13:53:11.683Z,55.27
2024-03-26T13:55:38.741Z,55.09
2024-03-26T13:58:05.425Z,55.04
2024-03-26T14:00:31.995Z,55.02
2024-03-26T14:02:58.113Z,55.03
2024-03-26T14:05:24.958Z,54.95
2024-03-26T14:07:51.404Z,55.00
2024-03-26T14:10:17.558Z,54.98
2024-03-26T14:12:44.423Z,54.76
2024-03-26T14:15:10.876Z,55.68
2024-03-26T14:17:37.049Z,55.80
2024-03-26T14:20:04.015Z,55.72
2024-03-26T14:22:31.107Z,55.15
2024-03-26T14:24:57.742Z,55.44
2024-03-26T14:27:23.925Z,55.76
2024-03-26T14:29:51.321Z,55.69
2024-03-26T14:32:18.542Z,56.10
2024-03-26T14:34:44.606Z,55.45
2024-03-26T14:37:11.003Z,55.72
2024-03-26T14:39:37.654Z,54.53
2024-03-26T14:42:04.924Z,56.09
2024-03-26T14:44:31.410Z,55.42
2024-03-26T14:46:57.612Z,55.67
2024-03-26T14:49:23.735Z,55.50
2024-03-26T14:51:50.157Z,56.37
2024-03-26T14:54:16.301Z,55.77
2024-03-26T14:56:43.270Z,56.74
2024-03-26T14:59:10.489Z,56.14
2024-03-26T15:01:36.721Z,55.73
2024-03-26T15:04:03.109Z,56.32
2024-03-26T15:06:29.372Z,53.88
2024-03-26T15:08:55.586Z,55.75
2024-03-26T15:11:21.664Z,55.55
2024-03-26T15:13:48.734Z,55.82
2024-03-26T15:16:16.329Z,55.49
2024-03-26T15:18:42.615Z,55.54
2024-03-26T15:21:09.733Z,56.14
2024-03-26T15:23:35.846Z,55.77
2024-03-26T15:26:02.096Z,56.28
2024-03-26T15:28:46.682Z,56.34
2024-03-26T15:31:28.337Z,56.16
2024-03-26T15:33:54.759Z,56.11
2024-03-26T15:36:20.848Z,55.78
2024-03-26T15:38:46.995Z,55.17
2024-03-26T15:41:13.371Z,55.40
2024-03-26T15:43:39.259Z,51.64
2024-03-26T15:46:05.476Z,55.29
2024-03-26T15:48:32.503Z,55.65
2024-03-26T15:50:58.680Z,56.10
2024-03-26T15:53:25.328Z,54.95
2024-03-26T15:55:53.009Z,55.72
2024-03-26T15:58:19.618Z,54.99
2024-03-26T16:00:45.763Z,55.56
2024-03-26T16:03:12.254Z,55.34
2024-03-26T16:05:39.010Z,55.65
2024-03-26T16:08:07.231Z,55.39
2024-03-26T16:10:52.716Z,55.78
2024-03-26T16:13:19.551Z,54.46
2024-03-26T16:15:46.005Z,56.35
2024-03-26T16:18:11.952Z,54.57
2024-03-26T16:20:38.750Z,56.47
2024-03-26T16:23:05.451Z,56.60
2024-03-26T16:25:32.753Z,55.92
2024-03-26T16:27:59.109Z,56.29
2024-03-26T16:30:25.714Z,55.03
2024-03-26T16:32:52.034Z,57.02
2024-03-26T16:35:18.998Z,56.01
2024-03-26T16:37:46.747Z,56.96
2024-03-26T16:40:14.311Z,56.61
2024-03-26T16:42:40.720Z,55.85
2024-03-26T16:45:07.427Z,54.66
2024-03-26T16:47:34.321Z,55.26
2024-03-26T16:50:00.642Z,55.35
2024-03-26T16:52:26.880Z,52.83
2024-03-26T16:54:53.927Z,55.16
2024-03-26T16:57:20.322Z,55.79
2024-03-26T16:59:46.470Z,54.44
2024-03-26T17:02:13.045Z,55.48
2024-03-26T17:04:41.085Z,56.22
2024-03-26T17:07:08.700Z,56.45
2024-03-26T17:09:35.274Z,55.91
2024-03-26T17:12:02.538Z,56.04
2024-03-26T17:14:29.309Z,56.07
2024-03-26T17:17:05.848Z,56.17
2024-03-26T17:19:41.491Z,56.66
2024-03-26T17:22:08.362Z,56.74
2024-03-26T17:24:34.969Z,56.77
2024-03-26T17:27:02.148Z,56.51
2024-03-26T17:29:28.441Z,57.27
2024-03-26T17:31:54.561Z,56.94
2024-03-26T17:34:21.042Z,56.77
2024-03-26T17:36:47.678Z,57.37
2024-03-26T17:39:13.964Z,57.11
2024-03-26T17:41:40.808Z,57.40
2024-03-26T17:44:07.740Z,57.72
2024-03-26T17:46:33.969Z,57.46
2024-03-26T17:49:00.516Z,57.93
2024-03-26T17:51:26.683Z,58.17
2024-03-26T17:53:53.463Z,58.56
2024-03-26T17:56:19.872Z,57.92
2024-03-26T17:58:46.048Z,58.61
2024-03-26T18:01:12.898Z,58.01
2024-03-26T18:03:39.351Z,58.19
2024-03-26T18:06:05.691Z,57.53
2024-03-26T18:08:31.846Z,58.36
2024-03-26T18:11:00.560Z,58.58
2024-03-26T18:13:27.066Z,58.08
2024-03-26T18:15:54.059Z,57.99
2024-03-26T18:18:21.204Z,58.96
2024-03-26T18:20:55.013Z,58.76
2024-03-26T18:23:21.495Z,59.29
2024-03-26T18:25:47.496Z,58.12
2024-03-26T18:28:14.022Z,58.77
2024-03-26T18:30:41.010Z,59.27
2024-03-26T18:33:07.531Z,59.51
2024-03-26T18:35:34.081Z,58.82
2024-03-26T18:38:00.665Z,58.35
2024-03-26T18:40:27.634Z,58.62
2024-03-26T18:42:54.259Z,59.01
2024-03-26T18:45:21.058Z,58.29
2024-03-26T18:47:47.312Z,58.60
2024-03-26T18:50:13.796Z,59.25
2024-03-26T18:52:40.960Z,58.82
2024-03-26T18:55:08.255Z,59.51
2024-03-26T18:57:34.444Z,59.29
2024-03-26T19:00:01.555Z,58.98
2024-03-26T19:02:29.465Z,58.81
2024-03-26T19:04:55.926Z,58.79
2024-03-26T19:07:22.665Z,58.95
2024-03-26T19:09:49.513Z,59.12
2024-03-26T19:12:16.902Z,59.16
2024-03-26T19:14:43.778Z,59.31
2024-03-26T19:17:10.202Z,59.14
2024-03-26T19:19:36.306Z,57.02
2024-03-26T19:22:03.250Z,58.68
2024-03-26T19:24:30.563Z,58.80
2024-03-26T19:26:57.507Z,58.73
2024-03-26T19:29:25.022Z,58.70
2024-03-26T19:31:51.425Z,58.99
2024-03-26T19:34:17.831Z,59.04
2024-03-26T19:36:44.473Z,58.96
2024-03-26T19:39:10.847Z,58.94
2024-03-26T19:41:37.535Z,58.08
2024-03-26T19:44:05.190Z,58.87
2024-03-26T19:46:32.058Z,58.67
2024-03-26T19:48:58.875Z,58.36
2024-03-26T19:51:26.581Z,58.39
2024-03-26T19:53:53.317Z,57.98
2024-03-26T19:56:19.804Z,58.38
2024-03-26T19:58:46.522Z,58.55
2024-03-26T20:01:13.290Z,56.18
2024-03-26T20:03:39.580Z,57.80
2024-03-26T20:06:10.487Z,58.05
2024-03-26T20:08:37.341Z,57.57
2024-03-26T20:11:04.336Z,57.65
2024-03-26T20:13:31.062Z,57.75
2024-03-26T20:15:57.697Z,57.68
2024-03-26T20:18:24.680Z,58.37
2024-03-26T20:20:54.253Z,58.21
2024-03-26T20:23:20.454Z,57.71
2024-03-26T20:25:46.786Z,58.29
2024-03-26T20:28:13.405Z,57.54
2024-03-26T20:30:40.578Z,58.10
2024-03-26T20:33:06.757Z,58.45
2024-03-26T20:35:36.597Z,58.70
2024-03-26T20:38:03.031Z,58.90
2024-03-26T20:40:29.763Z,58.35
2024-03-26T20:42:56.223Z,59.14
2024-03-26T20:45:22.610Z,59.31
2024-03-26T20:47:48.867Z,59.31
2024-03-26T20:50:17.607Z,58.84
2024-03-26T20:52:44.642Z,59.51
2024-03-26T20:55:11.075Z,58.76
2024-03-26T20:57:38.407Z,58.78
2024-03-26T21:00:07.239Z,59.26
2024-03-26T21:02:33.457Z,58.80
2024-03-26T21:05:02.046Z,58.89
2024-03-26T21:07:28.643Z,59.42
2024-03-26T21:09:55.685Z,58.99
2024-03-26T21:12:22.188Z,58.97
2024-03-26T21:14:48.493Z,58.24
2024-03-26T21:17:16.109Z,59.59
2024-03-26T21:19:42.636Z,59.69
2024-03-26T21:22:08.648Z,57.94
2024-03-26T21:24:35.666Z,59.64
2024-03-26T21:27:02.847Z,59.34
2024-03-26T21:29:29.080Z,59.81
2024-03-26T21:31:55.207Z,59.78
2024-03-26T21:34:21.705Z,59.13
2024-03-26T21:36:47.767Z,59.00
2024-03-26T21:39:13.979Z,59.64
2024-03-26T21:41:40.532Z,59.59
2024-03-26T21:44:07.089Z,58.38
2024-03-26T21:46:33.122Z,58.36
2024-03-26T21:48:59.776Z,59.34
2024-03-26T21:51:26.244Z,59.27
2024-03-26T21:53:52.801Z,59.78
2024-03-26T21:56:19.327Z,60.37
2024-03-26T21:58:45.734Z,59.62
2024-03-26T22:01:14.776Z,60.34
2024-03-26T22:03:41.526Z,60.65
2024-03-26T22:06:11.810Z,60.58
2024-03-26T22:08:38.067Z,61.08
2024-03-26T22:11:05.279Z,61.25
2024-03-26T22:13:31.554Z,61.30
2024-03-26T22:15:57.872Z,61.45
2024-03-26T22:18:25.248Z,61.44
2024-03-26T22:20:55.580Z,62.15
2024-03-26T22:23:22.117Z,62.31
2024-03-26T22:25:55.227Z,62.42
2024-03-26T22:28:21.808Z,62.29
2024-03-26T22:30:47.819Z,62.96
2024-03-26T22:33:14.320Z,62.26
2024-03-26T22:35:41.402Z,62.04
2024-03-26T22:38:08.198Z,62.76
2024-03-26T22:40:34.852Z,62.30
2024-03-26T22:43:01.220Z,62.34
2024-03-26T22:45:28.787Z,62.61
2024-03-26T22:47:55.376Z,63.23
2024-03-26T22:50:21.426Z,63.66
2024-03-26T22:52:48.267Z,62.93
2024-03-26T22:55:14.825Z,62.75
2024-03-26T22:57:40.890Z,63.22
2024-03-26T23:00:21.241Z,62.80
2024-03-26T23:02:50.602Z,62.66
2024-03-26T23:05:17.488Z,63.29
2024-03-26T23:07:43.991Z,62.58
2024-03-26T23:10:11.656Z,63.28
2024-03-26T23:12:38.007Z,63.50
2024-03-26T23:15:04.750Z,63.53
2024-03-26T23:17:31.582Z,63.32
2024-03-26T23:19:57.776Z,62.95
2024-03-26T23:22:24.290Z,63.48
2024-03-26T23:24:53.951Z,63.70
2024-03-26T23:27:20.961Z,63.13
2024-03-26T23:29:47.195Z,63.46
2024-03-26T23:32:13.920Z,63.76
2024-03-26T23:34:40.108Z,63.97
2024-03-26T23:37:06.339Z,63.51
2024-03-26T23:39:32.994Z,63.38
2024-03-26T23:41:59.221Z,63.80
2024-03-26T23:44:26.068Z,64.03
2024-03-26T23:46:52.526Z,64.05
2024-03-26T23:49:18.724Z,63.77
2024-03-26T23:51:45.820Z,63.91
2024-03-26T23:54:12.717Z,63.95
2024-03-26T23:56:39.085Z,63.77
2024-03-26T23:59:05.318Z,64.21
